createdAt,value
2018-06-25T00:01:06.792Z,13.60
2018-06-25T00:03:39.133Z,13.50
2018-06-25T00:06:09.070Z,13.29
2018-06-25T00:08:39.113Z,13.52
2018-06-25T00:11:09.141Z,13.52
2018-06-25T00:13:39.026Z,13.54
2018-06-25T00:16:09.014Z,13.54
2018-06-25T00:18:38.904Z,13.56
2018-06-25T00:21:08.903Z,13.57
2018-06-25T00:23:40.261Z,13.59
2018-06-25T00:26:11.032Z,13.62
2018-06-25T00:28:41.956Z,13.64
2018-06-25T00:31:12.474Z,13.64
2018-06-25T00:33:43.317Z,13.65
2018-06-25T00:36:14.004Z,13.67
2018-06-25T00:38:44.985Z,13.68
2018-06-25T00:41:16.016Z,13.68
2018-06-25T00:43:45.943Z,13.68
2018-06-25T00:46:17.309Z,13.68
2018-06-25T00:48:47.944Z,13.68
2018-06-25T00:51:19.729Z,13.69
2018-06-25T00:53:50.282Z,13.67
2018-06-25T00:56:20.260Z,13.65
2018-06-25T01:00:00.786Z,13.63
2018-06-25T01:02:30.707Z,13.59
2018-06-25T01:05:00.651Z,13.60
2018-06-25T01:07:30.576Z,13.57
2018-06-25T01:10:00.565Z,13.57
2018-06-25T01:12:30.561Z,13.53
2018-06-25T01:15:00.527Z,13.53
2018-06-25T01:17:30.571Z,13.51
2018-06-25T01:20:00.493Z,13.50
2018-06-25T01:22:30.594Z,13.48
2018-06-25T01:25:00.519Z,13.47
2018-06-25T01:27:30.531Z,13.44
2018-06-25T01:30:00.506Z,13.41
2018-06-25T01:32:30.446Z,13.30
2018-06-25T01:35:00.491Z,13.31
2018-06-25T01:37:30.586Z,13.30
2018-06-25T01:40:00.501Z,13.29
2018-06-25T01:42:30.558Z,13.27
2018-06-25T01:45:00.854Z,13.25
2018-06-25T01:47:30.845Z,13.25
2018-06-25T01:50:00.819Z,13.26
2018-06-25T01:52:30.732Z,13.26
2018-06-25T01:55:00.645Z,13.26
2018-06-25T01:57:30.597Z,13.25
2018-06-25T02:00:00.477Z,13.23
2018-06-25T02:02:30.514Z,13.23
2018-06-25T02:05:00.505Z,13.22
2018-06-25T02:07:30.614Z,13.22
2018-06-25T02:10:00.506Z,13.21
2018-06-25T02:12:30.596Z,13.18
2018-06-25T02:15:00.454Z,13.17
2018-06-25T02:17:30.483Z,13.12
2018-06-25T02:20:00.545Z,13.09
2018-06-25T02:22:30.632Z,13.08
2018-06-25T02:25:00.603Z,13.07
2018-06-25T02:27:30.587Z,13.06
2018-06-25T02:30:01.374Z,13.03
2018-06-25T02:32:31.350Z,12.99
2018-06-25T02:35:01.464Z,12.96
2018-06-25T02:37:31.591Z,12.97
2018-06-25T02:40:01.494Z,12.96
2018-06-25T02:42:31.626Z,12.96
2018-06-25T02:45:01.494Z,12.94
2018-06-25T02:47:31.606Z,12.94
2018-06-25T02:50:01.512Z,12.93
2018-06-25T02:52:31.587Z,12.94
2018-06-25T02:55:01.496Z,12.90
2018-06-25T02:57:31.528Z,12.88
2018-06-25T03:00:01.599Z,12.86
2018-06-25T03:02:31.553Z,12.83
2018-06-25T03:05:01.514Z,12.74
2018-06-25T03:07:31.832Z,12.85
2018-06-25T03:10:01.732Z,12.84
2018-06-25T03:12:31.675Z,12.80
2018-06-25T03:15:01.558Z,12.72
2018-06-25T03:17:31.503Z,12.75
2018-06-25T03:20:01.798Z,12.75
2018-06-25T03:22:31.814Z,12.80
2018-06-25T03:25:02.602Z,12.82
2018-06-25T03:27:32.569Z,12.80
2018-06-25T03:30:02.483Z,12.82
2018-06-25T03:32:32.644Z,12.81
2018-06-25T03:35:02.647Z,12.88
2018-06-25T03:37:32.626Z,12.84
2018-06-25T03:40:02.567Z,12.85
2018-06-25T03:42:32.722Z,12.84
2018-06-25T03:45:02.694Z,12.80
2018-06-25T03:47:33.083Z,12.83
2018-06-25T03:50:03.034Z,12.85
2018-06-25T03:52:32.988Z,12.87
2018-06-25T03:55:02.854Z,12.88
2018-06-25T03:57:32.807Z,12.88
2018-06-25T04:00:02.709Z,12.88
2018-06-25T04:02:32.606Z,12.88
2018-06-25T04:05:02.976Z,12.87
2018-06-25T04:07:32.983Z,12.82
2018-06-25T04:10:02.919Z,12.82
2018-06-25T04:12:34.386Z,12.87
2018-06-25T04:15:05.327Z,12.91
2018-06-25T04:17:36.042Z,12.97
2018-06-25T04:20:06.999Z,13.01
2018-06-25T04:22:38.426Z,13.03
2018-06-25T04:25:09.002Z,13.02
2018-06-25T04:27:38.956Z,13.02
2018-06-25T04:30:10.289Z,13.06
2018-06-25T04:32:40.973Z,13.11
2018-06-25T04:35:12.301Z,13.17
2018-06-25T04:37:42.932Z,13.22
2018-06-25T04:40:14.635Z,13.21
2018-06-25T04:42:45.349Z,13.19
2018-06-25T04:45:15.958Z,13.12
2018-06-25T04:47:47.431Z,13.15
2018-06-25T04:50:18.019Z,13.22
2018-06-25T04:52:49.021Z,13.13
2018-06-25T04:55:19.941Z,13.17
2018-06-25T04:57:51.350Z,13.18
2018-06-25T05:00:21.293Z,13.16
2018-06-25T05:02:52.106Z,13.21
2018-06-25T05:05:23.009Z,13.23
2018-06-25T05:07:54.344Z,13.22
2018-06-25T05:10:24.998Z,13.22
2018-06-25T05:12:56.362Z,13.24
2018-06-25T05:15:27.304Z,13.27
2018-06-25T05:17:58.044Z,13.25
2018-06-25T05:20:29.410Z,13.29
2018-06-25T05:23:00.098Z,13.33
2018-06-25T05:25:31.319Z,13.35
2018-06-25T05:28:02.091Z,13.40
2018-06-25T05:30:32.988Z,13.42
2018-06-25T05:33:04.134Z,13.47
2018-06-25T05:35:35.088Z,13.52
2018-06-25T05:38:05.943Z,13.57
2018-06-25T05:40:37.168Z,13.56
2018-06-25T05:43:07.177Z,13.58
2018-06-25T05:45:37.914Z,13.47
2018-06-25T05:48:09.653Z,13.51
2018-06-25T05:50:40.279Z,13.54
2018-06-25T05:53:11.403Z,13.55
2018-06-25T05:55:41.968Z,13.59
2018-06-25T05:58:13.292Z,13.61
2018-06-25T06:00:44.062Z,13.65
2018-06-25T06:03:15.002Z,13.67
2018-06-25T06:05:46.982Z,13.62
2018-06-25T06:08:16.922Z,13.62
2018-06-25T06:10:48.297Z,13.57
2018-06-25T06:13:19.025Z,13.70
2018-06-25T06:15:49.946Z,13.75
2018-06-25T06:18:21.364Z,13.71
2018-06-25T06:20:53.321Z,13.75
2018-06-25T06:23:24.090Z,13.73
2018-06-25T06:25:54.058Z,13.83
2018-06-25T06:28:25.068Z,13.83
2018-06-25T06:30:55.015Z,13.85
2018-06-25T06:33:26.249Z,13.87
2018-06-25T06:35:57.009Z,13.82
2018-06-25T06:38:28.446Z,13.77
2018-06-25T06:40:59.075Z,13.84
2018-06-25T06:43:29.057Z,13.78
2018-06-25T06:45:59.972Z,13.80
2018-06-25T06:48:31.343Z,13.88
2018-06-25T06:51:02.080Z,13.95
2018-06-25T06:53:33.017Z,14.02
2018-06-25T06:56:04.418Z,14.11
2018-06-25T06:58:35.062Z,14.11
2018-06-25T07:01:06.097Z,14.16
2018-06-25T07:03:37.410Z,14.21
2018-06-25T07:06:08.352Z,14.26
2018-06-25T07:08:39.518Z,14.25
2018-06-25T07:11:10.027Z,14.26
2018-06-25T07:13:41.092Z,14.33
2018-06-25T07:16:11.961Z,14.34
2018-06-25T07:18:43.370Z,14.39
2018-06-25T07:21:14.365Z,14.41
2018-06-25T07:23:45.034Z,14.37
2018-06-25T07:26:21.566Z,14.39
2018-06-25T07:28:51.627Z,14.46
2018-06-25T07:31:21.505Z,14.52
2018-06-25T07:33:51.468Z,14.55
2018-06-25T07:36:21.904Z,14.53
2018-06-25T07:38:52.690Z,14.59
2018-06-25T07:41:22.692Z,14.59
2018-06-25T07:43:53.358Z,14.63
2018-06-25T07:46:23.998Z,14.73
2018-06-25T07:48:55.737Z,14.70
2018-06-25T07:51:26.163Z,14.81
2018-06-25T07:53:57.038Z,14.97
2018-06-25T07:56:27.858Z,15.13
2018-06-25T07:58:59.379Z,15.22
2018-06-25T08:01:29.241Z,15.32
2018-06-25T08:04:00.196Z,15.46
2018-06-25T08:06:30.880Z,15.56
2018-06-25T08:09:02.483Z,15.45
2018-06-25T08:11:33.358Z,15.43
2018-06-25T08:14:04.653Z,15.39
2018-06-25T08:16:35.756Z,15.46
2018-06-25T08:19:06.506Z,15.43
2018-06-25T08:21:36.331Z,15.53
2018-06-25T08:24:07.037Z,15.74
2018-06-25T08:26:38.055Z,16.03
2018-06-25T08:29:08.996Z,16.14
2018-06-25T08:31:40.510Z,16.34
2018-06-25T08:34:11.199Z,16.35
2018-06-25T08:36:42.448Z,16.40
2018-06-25T08:39:13.725Z,16.48
2018-06-25T08:41:44.271Z,16.57
2018-06-25T08:44:15.022Z,16.62
2018-06-25T08:46:46.357Z,16.80
2018-06-25T08:49:17.004Z,16.90
2018-06-25T08:51:47.886Z,16.98
2018-06-25T08:54:19.298Z,17.36
2018-06-25T08:56:50.088Z,17.53
2018-06-25T08:59:20.994Z,17.38
2018-06-25T09:01:52.018Z,17.48
2018-06-25T09:04:23.432Z,17.45
2018-06-25T09:06:54.488Z,17.51
2018-06-25T09:09:25.405Z,17.69
2018-06-25T09:11:56.057Z,17.75
2018-06-25T09:14:27.066Z,17.73
2018-06-25T09:16:58.353Z,18.00
2018-06-25T09:19:29.022Z,18.32
2018-06-25T09:22:00.028Z,18.60
2018-06-25T09:24:30.984Z,18.72
2018-06-25T09:27:02.940Z,18.62
2018-06-25T09:29:32.941Z,18.85
2018-06-25T09:32:04.550Z,18.93
2018-06-25T09:34:40.051Z,18.96
2018-06-25T09:37:09.993Z,19.03
2018-06-25T09:39:39.923Z,19.29
2018-06-25T09:42:09.891Z,19.42
2018-06-25T09:44:39.922Z,19.48
2018-06-25T09:47:10.270Z,19.76
2018-06-25T09:49:41.013Z,20.12
2018-06-25T09:52:11.909Z,20.39
2018-06-25T09:54:43.335Z,20.45
2018-06-25T09:57:13.949Z,20.54
2018-06-25T09:59:44.984Z,20.41
2018-06-25T10:02:15.909Z,20.42
2018-06-25T10:04:47.326Z,20.41
2018-06-25T10:07:17.994Z,20.76
2018-06-25T10:09:48.988Z,20.77
2018-06-25T10:12:20.090Z,20.84
2018-06-25T10:14:50.921Z,20.79
2018-06-25T10:17:22.188Z,20.92
2018-06-25T10:19:52.947Z,21.23
2018-06-25T10:22:23.837Z,21.71
2018-06-25T10:24:55.189Z,21.74
2018-06-25T10:27:25.848Z,21.73
2018-06-25T10:29:57.266Z,21.81
2018-06-25T10:32:27.884Z,21.76
2018-06-25T10:34:59.289Z,21.69
2018-06-25T10:37:29.107Z,21.83
2018-06-25T10:39:59.862Z,21.82
2018-06-25T10:42:31.265Z,21.62
2018-06-25T10:45:01.927Z,21.73
2018-06-25T10:47:31.789Z,21.85
2018-06-25T10:50:03.310Z,21.84
2018-06-25T10:52:33.852Z,21.86
2018-06-25T10:55:05.265Z,21.88
2018-06-25T10:57:35.826Z,21.88
2018-06-25T11:00:08.102Z,21.77
2018-06-25T11:02:38.094Z,21.86
2018-06-25T11:05:09.026Z,21.82
2018-06-25T11:07:40.092Z,21.65
2018-06-25T11:10:10.988Z,21.88
2018-06-25T11:12:42.446Z,21.96
2018-06-25T11:15:13.024Z,21.78
2018-06-25T11:17:43.877Z,21.82
2018-06-25T11:20:13.886Z,21.71
2018-06-25T11:22:44.895Z,21.86
2018-06-25T11:25:16.259Z,21.83
2018-06-25T11:27:46.953Z,21.87
2018-06-25T11:30:18.061Z,21.99
2018-06-25T11:32:48.925Z,22.12
2018-06-25T11:35:20.654Z,22.16
2018-06-25T11:37:51.167Z,22.22
2018-06-25T11:40:23.139Z,22.13
2018-06-25T11:42:53.019Z,22.21
2018-06-25T11:45:23.972Z,22.04
2018-06-25T11:47:54.913Z,22.10
2018-06-25T11:50:26.361Z,22.18
2018-06-25T11:52:56.962Z,22.08
2018-06-25T11:55:28.348Z,22.02
2018-06-25T11:57:59.872Z,22.20
2018-06-25T12:00:30.235Z,22.13
2018-06-25T12:03:00.997Z,22.14
2018-06-25T12:05:32.013Z,22.21
2018-06-25T12:08:03.539Z,22.34
2018-06-25T12:10:34.130Z,22.60
2018-06-25T12:13:04.942Z,22.72
2018-06-25T12:15:35.970Z,22.52
2018-06-25T12:18:06.869Z,22.45
2018-06-25T12:20:37.886Z,22.44
2018-06-25T12:23:09.423Z,22.37
2018-06-25T12:25:40.136Z,22.26
2018-06-25T12:28:10.897Z,22.04
2018-06-25T12:30:42.269Z,22.16
2018-06-25T12:33:12.839Z,22.16
2018-06-25T12:35:44.396Z,21.97
2018-06-25T12:38:14.988Z,21.98
2018-06-25T12:40:45.992Z,21.77
2018-06-25T12:43:16.998Z,21.78
2018-06-25T12:45:48.726Z,21.73
2018-06-25T12:48:19.283Z,21.76
2018-06-25T12:50:50.060Z,21.69
2018-06-25T12:53:20.932Z,21.72
2018-06-25T12:55:52.038Z,21.80
2018-06-25T12:58:23.678Z,21.92
2018-06-25T13:00:54.260Z,22.02
2018-06-25T13:03:25.882Z,22.15
2018-06-25T13:05:56.360Z,22.27
2018-06-25T13:08:27.818Z,22.29
2018-06-25T13:10:59.946Z,22.21
2018-06-25T13:13:29.841Z,22.53
2018-06-25T13:15:59.770Z,22.79
2018-06-25T13:18:30.746Z,23.17
2018-06-25T13:21:01.410Z,23.46
2018-06-25T13:23:32.042Z,23.50
2018-06-25T13:26:03.477Z,23.21
2018-06-25T13:28:34.039Z,22.98
2018-06-25T13:31:04.989Z,23.14
2018-06-25T13:33:35.887Z,23.08
2018-06-25T13:36:07.289Z,23.32
2018-06-25T13:38:37.866Z,23.21
2018-06-25T13:41:09.410Z,23.21
2018-06-25T13:43:40.014Z,23.24
2018-06-25T13:46:10.916Z,23.24
2018-06-25T13:48:42.356Z,23.11
2018-06-25T13:51:13.938Z,23.01
2018-06-25T13:53:44.243Z,22.77
2018-06-25T13:56:14.941Z,22.68
2018-06-25T13:58:45.843Z,22.92
2018-06-25T14:01:17.908Z,22.94
2018-06-25T14:03:48.006Z,22.91
2018-06-25T14:06:18.874Z,22.98
2018-06-25T14:08:50.251Z,23.08
2018-06-25T14:11:21.114Z,23.19
2018-06-25T14:13:51.936Z,23.36
2018-06-25T14:16:23.100Z,23.43
2018-06-25T14:18:53.989Z,23.59
2018-06-25T14:21:25.132Z,23.53
2018-06-25T14:23:59.889Z,23.34
2018-06-25T14:26:34.781Z,23.39
2018-06-25T14:29:08.713Z,23.59
2018-06-25T14:31:38.747Z,23.80
2018-06-25T14:34:13.569Z,23.33
2018-06-25T14:36:43.678Z,23.64
2018-06-25T14:39:13.872Z,23.99
2018-06-25T14:41:43.854Z,23.95
2018-06-25T14:44:13.731Z,24.13
2018-06-25T14:46:43.729Z,24.20
2018-06-25T14:49:13.675Z,24.00
2018-06-25T14:51:43.678Z,23.93
2018-06-25T14:54:13.586Z,24.06
2018-06-25T14:56:43.586Z,24.28
2018-06-25T14:59:13.637Z,24.56
2018-06-25T15:01:43.678Z,24.37
2018-06-25T15:04:13.981Z,24.42
2018-06-25T15:06:43.930Z,24.48
2018-06-25T15:09:13.939Z,24.50
2018-06-25T15:11:44.084Z,24.55
2018-06-25T15:14:14.910Z,24.57
2018-06-25T15:16:45.953Z,24.82
2018-06-25T15:19:16.968Z,24.74
2018-06-25T15:21:48.857Z,24.71
2018-06-25T15:24:19.213Z,24.58
2018-06-25T15:26:49.963Z,24.69
2018-06-25T15:29:20.896Z,24.82
2018-06-25T15:31:52.602Z,24.78
2018-06-25T15:34:23.124Z,24.70
2018-06-25T15:36:53.920Z,24.39
2018-06-25T15:39:25.268Z,24.48
2018-06-25T15:41:55.981Z,24.54
2018-06-25T15:44:26.874Z,24.50
2018-06-25T15:46:58.710Z,24.30
2018-06-25T15:49:29.203Z,24.15
2018-06-25T15:51:59.981Z,23.91
2018-06-25T15:54:30.886Z,23.90
2018-06-25T15:57:02.222Z,23.89
2018-06-25T15:59:32.885Z,23.93
2018-06-25T16:02:04.309Z,23.73
2018-06-25T16:04:35.975Z,23.51
2018-06-25T16:07:05.941Z,23.60
2018-06-25T16:09:36.906Z,23.59
2018-06-25T16:12:07.962Z,23.60
2018-06-25T16:14:38.938Z,23.65
2018-06-25T16:17:09.958Z,23.85
2018-06-25T16:19:41.015Z,24.10
2018-06-25T16:22:12.248Z,24.23
2018-06-25T16:24:42.941Z,24.25
2018-06-25T16:27:14.030Z,24.26
2018-06-25T16:29:44.856Z,24.26
2018-06-25T16:32:16.285Z,23.99
2018-06-25T16:34:47.028Z,24.03
2018-06-25T16:37:17.967Z,23.95
2018-06-25T16:39:48.926Z,23.86
2018-06-25T16:42:19.981Z,23.70
2018-06-25T16:44:50.934Z,23.60
2018-06-25T16:47:22.015Z,23.45
2018-06-25T16:49:52.878Z,23.38
2018-06-25T16:52:24.497Z,23.46
2018-06-25T16:54:55.220Z,23.48
2018-06-25T16:57:26.023Z,23.52
2018-06-25T16:59:56.865Z,23.54
2018-06-25T17:02:28.399Z,23.55
2018-06-25T17:04:58.925Z,23.42
2018-06-25T17:07:29.944Z,23.34
2018-06-25T17:10:00.839Z,23.37
2018-06-25T17:12:32.603Z,23.42
2018-06-25T17:15:03.050Z,23.37
2018-06-25T17:17:34.005Z,23.38
2018-06-25T17:20:05.038Z,23.35
2018-06-25T17:22:35.902Z,23.35
2018-06-25T17:25:07.213Z,23.33
2018-06-25T17:27:37.933Z,23.39
2018-06-25T17:30:09.158Z,23.40
2018-06-25T17:32:39.070Z,23.41
2018-06-25T17:35:09.893Z,23.39
2018-06-25T17:37:41.320Z,23.38
2018-06-25T17:40:12.026Z,23.37
2018-06-25T17:42:42.942Z,23.34
2018-06-25T17:45:14.064Z,23.32
2018-06-25T17:47:44.957Z,23.29
2018-06-25T17:50:15.902Z,23.23
2018-06-25T17:52:46.925Z,23.18
2018-06-25T17:55:18.241Z,23.15
2018-06-25T17:57:48.964Z,23.10
2018-06-25T18:00:19.966Z,23.04
2018-06-25T18:02:51.093Z,22.99
2018-06-25T18:05:21.869Z,22.93
2018-06-25T18:07:53.474Z,22.91
2018-06-25T18:10:24.658Z,22.86
2018-06-25T18:12:57.458Z,22.82
2018-06-25T18:15:31.891Z,22.75
2018-06-25T18:18:04.624Z,22.67
2018-06-25T18:20:37.587Z,22.62
2018-06-25T18:23:13.339Z,22.58
2018-06-25T18:28:28.687Z,22.36
2018-06-25T18:31:00.987Z,22.03
2018-06-25T18:33:32.956Z,21.94
2018-06-25T18:36:07.010Z,21.86
2018-06-25T18:38:40.081Z,21.74
2018-06-25T18:41:21.050Z,21.61
2018-06-25T18:43:57.860Z,21.49
2018-06-25T18:46:28.772Z,21.44
2018-06-25T18:49:00.358Z,21.42
2018-06-25T18:51:31.272Z,21.39
2018-06-25T18:54:02.220Z,21.26
2018-06-25T18:56:32.406Z,21.14
2018-06-25T18:59:02.768Z,20.74
2018-06-25T19:01:32.635Z,20.25
2018-06-25T19:04:02.634Z,19.98
2018-06-25T19:06:32.885Z,19.97
2018-06-25T19:09:03.753Z,19.77
2018-06-25T19:11:34.341Z,19.69
2018-06-25T19:14:05.128Z,19.59
2018-06-25T19:16:35.383Z,19.51
2018-06-25T19:19:06.064Z,19.22
2018-06-25T19:21:36.436Z,19.11
2018-06-25T19:24:06.943Z,19.33
2018-06-25T19:26:37.226Z,19.48
2018-06-25T19:29:08.249Z,19.60
2018-06-25T19:31:40.368Z,19.68
2018-06-25T19:34:12.579Z,19.58
2018-06-25T19:36:44.869Z,19.48
2018-06-25T19:39:17.206Z,19.15
2018-06-25T19:41:51.386Z,19.22
2018-06-25T19:44:22.884Z,19.21
2018-06-25T19:46:53.308Z,19.32
2018-06-25T19:49:23.620Z,19.22
2018-06-25T19:51:53.555Z,19.11
2018-06-25T19:54:23.646Z,19.11
2018-06-25T19:56:55.038Z,19.11
2018-06-25T19:59:26.848Z,19.14
2018-06-25T20:01:58.041Z,19.16
2018-06-25T20:04:34.359Z,19.19
2018-06-25T20:07:05.828Z,19.07
2018-06-25T20:09:36.899Z,18.69
2018-06-25T20:12:07.460Z,18.54
2018-06-25T20:14:38.934Z,18.28
2018-06-25T20:17:10.968Z,18.27
2018-06-25T20:19:42.457Z,18.34
2018-06-25T20:22:13.914Z,18.17
2018-06-25T20:24:47.905Z,17.92
2018-06-25T20:27:21.147Z,17.67
2018-06-25T20:29:52.057Z,17.52
2018-06-25T20:32:24.461Z,17.67
2018-06-25T20:34:55.231Z,17.54
2018-06-25T20:37:26.864Z,17.56
2018-06-25T20:39:59.876Z,17.66
2018-06-25T20:42:29.989Z,17.74
2018-06-25T20:45:00.016Z,17.84
2018-06-25T20:47:30.230Z,17.93
2018-06-25T20:50:00.563Z,17.87
2018-06-25T20:52:30.755Z,17.95
2018-06-25T20:55:00.774Z,17.99
2018-06-25T20:57:30.761Z,18.04
2018-06-25T21:00:00.843Z,18.07
2018-06-25T21:02:30.981Z,18.07
2018-06-25T21:05:04.954Z,18.07
2018-06-25T21:07:34.873Z,18.06
2018-06-25T21:10:05.297Z,18.05
2018-06-25T21:12:37.742Z,18.04
2018-06-25T21:15:08.205Z,18.03
2018-06-25T21:17:38.262Z,18.03
2018-06-25T21:20:08.475Z,18.01
2018-06-25T21:22:38.539Z,17.98
2018-06-25T21:25:08.662Z,17.98
2018-06-25T21:27:38.550Z,17.98
2018-06-25T21:30:09.436Z,17.95
2018-06-25T21:32:40.003Z,17.93
2018-06-25T21:35:11.820Z,17.86
2018-06-25T21:37:42.493Z,17.83
2018-06-25T21:40:14.478Z,17.82
2018-06-25T21:42:45.790Z,17.78
2018-06-25T21:45:16.764Z,17.75
2018-06-25T21:47:47.253Z,17.70
2018-06-25T21:50:18.369Z,17.67
2018-06-25T21:52:48.797Z,17.62
2018-06-25T21:55:19.554Z,17.59
2018-06-25T21:57:50.073Z,17.56
2018-06-25T22:00:22.185Z,17.54
2018-06-25T22:02:52.540Z,17.51
2018-06-25T22:05:23.415Z,17.49
2018-06-25T22:07:53.636Z,17.44
2018-06-25T22:10:23.830Z,17.41
2018-06-25T22:12:53.735Z,17.40
2018-06-25T22:15:23.868Z,17.38
2018-06-25T22:17:53.793Z,17.35
2018-06-25T22:20:23.787Z,17.32
2018-06-25T22:22:53.768Z,17.25
2018-06-25T22:25:23.953Z,17.23
2018-06-25T22:27:53.931Z,17.18
2018-06-25T22:30:24.105Z,17.09
2018-06-25T22:32:54.293Z,17.02
2018-06-25T22:35:25.050Z,16.93
2018-06-25T22:37:55.273Z,16.91
2018-06-25T22:40:25.569Z,16.85
2018-06-25T22:42:55.822Z,16.82
2018-06-25T22:45:25.845Z,16.83
2018-06-25T22:47:55.779Z,16.86
2018-06-25T22:50:25.766Z,16.89
2018-06-25T22:52:55.685Z,16.90
2018-06-25T22:55:30.545Z,16.89
2018-06-25T22:58:00.650Z,16.83
2018-06-25T23:00:31.006Z,16.83
2018-06-25T23:03:00.950Z,16.83
2018-06-25T23:05:30.946Z,16.77
2018-06-25T23:08:00.902Z,16.73
2018-06-25T23:10:30.890Z,16.69
2018-06-25T23:13:00.906Z,16.63
2018-06-25T23:15:31.199Z,16.61
2018-06-25T23:18:01.411Z,16.57
2018-06-25T23:20:31.464Z,16.52
2018-06-25T23:23:01.499Z,16.54
2018-06-25T23:25:31.500Z,16.41
2018-06-25T23:28:01.542Z,16.36
2018-06-25T23:30:31.616Z,16.44
2018-06-25T23:33:01.566Z,16.06
2018-06-25T23:35:31.708Z,16.27
2018-06-25T23:38:01.730Z,16.24
2018-06-25T23:40:31.679Z,16.17
2018-06-25T23:43:01.562Z,16.17
2018-06-25T23:45:31.520Z,16.18
2018-06-25T23:48:01.499Z,16.17
2018-06-25T23:50:31.588Z,16.17
2018-06-25T23:53:01.491Z,16.19
2018-06-25T23:55:31.564Z,16.16
2018-06-25T23:58:01.412Z,16.21
